< < Back
Terminal Aerodrome Forecast


Current Version              Previous Versions:   1  2  3  4  5  6  7  8  9  

Terminal Aerodrome Forecast

781
FTUS42 KCHS 262001 AAB
TAFCHS
TAF AMD
KCHS 262001Z 2620/2718 10009KT P6SM VCTS SCT030CB BKN150
      TEMPO 2620/2622 12013G24KT 4SM TSRA BR BKN030CB
     FM262200 10010KT P6SM SCT040 BKN200
     FM270000 07005KT P6SM FEW020 BKN150
     FM270900 02003KT 5SM BR VCSH BKN015
     FM271400 35006KT P6SM SCT020 BKN035=



Latest METAR

037
SAUS80 KWBC 270800
MTRCHS
METAR KCHS 270756Z 02003KT 6SM BR FEW007 FEW020 OVC120 23/22 A2994 RMK
AO2 SLP138 OCNL LTGIC DSNT S CB DSNT S T02330217 $


USA.gov is the U.S. government's official web portal to all federal, state and local government web resources and services.